createdAt,value
2023-05-25T00:01:44.110Z,55.15
2023-05-25T00:04:11.752Z,55.38
2023-05-25T00:06:41.209Z,55.77
2023-05-25T00:09:08.425Z,55.63
2023-05-25T00:11:35.534Z,55.20
2023-05-25T00:14:02.719Z,54.79
2023-05-25T00:16:29.896Z,55.00
2023-05-25T00:18:57.684Z,54.57
2023-05-25T00:21:25.902Z,54.42
2023-05-25T00:23:53.000Z,54.40
2023-05-25T00:26:20.079Z,55.17
2023-05-25T00:28:47.193Z,55.04
2023-05-25T00:31:14.343Z,54.84
2023-05-25T00:33:41.584Z,54.79
2023-05-25T00:36:09.154Z,54.69
2023-05-25T00:38:36.845Z,54.52
2023-05-25T00:41:06.235Z,54.43
2023-05-25T00:43:33.493Z,54.44
2023-05-25T00:46:01.489Z,54.05
2023-05-25T00:48:29.226Z,54.26
2023-05-25T00:50:59.812Z,54.90
2023-05-25T00:53:27.133Z,55.43
2023-05-25T00:56:09.646Z,55.62
2023-05-25T00:58:41.529Z,55.42
2023-05-25T01:01:13.393Z,55.49
2023-05-25T01:03:45.613Z,55.61
2023-05-25T01:06:16.963Z,55.56
2023-05-25T01:08:51.114Z,55.56
2023-05-25T01:11:32.237Z,55.32
2023-05-25T01:13:59.882Z,55.26
2023-05-25T01:16:27.438Z,55.49
2023-05-25T01:18:54.862Z,55.17
2023-05-25T01:21:48.127Z,55.30
2023-05-25T01:24:33.558Z,55.30
2023-05-25T01:27:17.219Z,55.42
2023-05-25T01:29:46.913Z,55.20
2023-05-25T01:32:14.895Z,55.26
2023-05-25T01:34:43.658Z,55.08
2023-05-25T01:37:13.535Z,55.01
2023-05-25T01:39:41.405Z,54.71
2023-05-25T01:42:08.861Z,54.96
2023-05-25T01:44:37.750Z,55.15
2023-05-25T01:47:40.308Z,55.53
2023-05-25T01:50:22.690Z,55.55
2023-05-25T01:53:03.559Z,55.62
2023-05-25T01:55:38.179Z,55.74
2023-05-25T01:58:06.831Z,55.61
2023-05-25T02:00:35.889Z,55.73
2023-05-25T02:03:03.802Z,55.64
2023-05-25T02:05:31.329Z,55.49
2023-05-25T02:07:58.464Z,55.39
2023-05-25T02:10:25.595Z,55.58
2023-05-25T02:12:52.747Z,55.33
2023-05-25T02:15:19.920Z,54.96
2023-05-25T02:17:48.368Z,54.90
2023-05-25T02:20:15.813Z,55.23
2023-05-25T02:22:42.987Z,55.44
2023-05-25T02:25:11.677Z,55.42
2023-05-25T02:27:38.897Z,55.24
2023-05-25T02:30:07.991Z,55.48
2023-05-25T02:32:35.939Z,55.45
2023-05-25T02:35:03.602Z,55.87
2023-05-25T02:37:30.860Z,55.93
2023-05-25T02:39:57.965Z,55.82
2023-05-25T02:42:25.687Z,55.98
2023-05-25T02:44:52.896Z,56.17
2023-05-25T02:47:20.183Z,56.51
2023-05-25T02:49:47.858Z,56.17
2023-05-25T02:52:15.028Z,56.13
2023-05-25T02:54:42.690Z,56.20
2023-05-25T02:57:13.721Z,56.41
2023-05-25T02:59:41.019Z,56.68
2023-05-25T03:02:08.896Z,57.13
2023-05-25T03:04:38.896Z,56.59
2023-05-25T03:07:06.073Z,56.69
2023-05-25T03:09:33.234Z,56.88
2023-05-25T03:12:02.982Z,56.74
2023-05-25T03:14:30.118Z,56.57
2023-05-25T03:17:04.355Z,56.74
2023-05-25T03:19:32.359Z,56.64
2023-05-25T03:22:00.305Z,56.54
2023-05-25T03:24:28.855Z,56.58
2023-05-25T03:26:59.726Z,56.88
2023-05-25T03:29:27.141Z,56.71
2023-05-25T03:31:54.406Z,56.56
2023-05-25T03:34:29.287Z,56.67
2023-05-25T03:36:56.631Z,56.11
2023-05-25T03:39:23.914Z,56.41
2023-05-25T03:41:52.909Z,55.81
2023-05-25T03:44:20.145Z,55.65
2023-05-25T03:46:47.320Z,55.42
2023-05-25T03:49:14.505Z,55.13
2023-05-25T03:51:42.931Z,54.84
2023-05-25T03:54:10.551Z,54.91
2023-05-25T03:56:37.684Z,54.52
2023-05-25T03:59:06.016Z,54.28
2023-05-25T04:01:33.165Z,54.48
2023-05-25T04:04:00.483Z,54.85
2023-05-25T04:06:30.166Z,54.84
2023-05-25T04:08:58.193Z,55.20
2023-05-25T04:11:27.612Z,55.35
2023-05-25T04:13:58.165Z,55.16
2023-05-25T04:16:28.672Z,55.00
2023-05-25T04:18:56.378Z,54.98
2023-05-25T04:21:24.041Z,54.70
2023-05-25T04:23:51.384Z,54.26
2023-05-25T04:26:19.572Z,54.03
2023-05-25T04:28:49.269Z,53.85
2023-05-25T04:31:40.309Z,53.44
2023-05-25T04:34:27.782Z,53.56
2023-05-25T04:37:09.189Z,52.90
2023-05-25T04:39:37.518Z,52.10
2023-05-25T04:42:06.178Z,51.80
2023-05-25T04:44:34.609Z,51.59
2023-05-25T04:47:03.131Z,51.24
2023-05-25T04:49:34.529Z,50.49
2023-05-25T04:52:01.740Z,50.83
2023-05-25T04:54:31.325Z,50.81
2023-05-25T04:57:02.668Z,51.04
2023-05-25T04:59:31.620Z,50.52
2023-05-25T05:01:59.033Z,50.63
2023-05-25T05:04:27.296Z,49.77
2023-05-25T05:06:57.385Z,49.63
2023-05-25T05:09:26.590Z,49.13
2023-05-25T05:11:57.064Z,49.34
2023-05-25T05:14:24.656Z,49.27
2023-05-25T05:16:53.262Z,49.41
2023-05-25T05:19:21.467Z,49.24
2023-05-25T05:21:48.769Z,49.16
2023-05-25T05:24:17.582Z,48.39
2023-05-25T05:26:57.356Z,47.62
2023-05-25T05:29:46.893Z,47.22
2023-05-25T05:32:14.106Z,46.86
2023-05-25T05:34:41.288Z,46.54
2023-05-25T05:37:18.084Z,46.52
2023-05-25T05:39:46.231Z,46.63
2023-05-25T05:42:15.136Z,45.96
2023-05-25T05:44:42.336Z,45.83
2023-05-25T05:47:09.584Z,45.52
2023-05-25T05:49:39.361Z,44.62
2023-05-25T05:52:09.518Z,44.70
2023-05-25T05:54:37.281Z,44.75
2023-05-25T05:57:09.845Z,44.65
2023-05-25T05:59:37.463Z,44.38
2023-05-25T06:02:07.473Z,43.81
2023-05-25T06:04:34.724Z,43.72
2023-05-25T06:07:01.845Z,42.91
2023-05-25T06:09:29.147Z,42.65
2023-05-25T06:11:59.710Z,42.11
2023-05-25T06:14:28.767Z,41.65
2023-05-25T06:16:59.342Z,41.47
2023-05-25T06:19:26.739Z,41.40
2023-05-25T06:21:53.885Z,40.93
2023-05-25T06:24:21.670Z,40.75
2023-05-25T06:26:48.971Z,40.26
2023-05-25T06:29:17.404Z,40.27
2023-05-25T06:31:45.248Z,39.97
2023-05-25T06:34:12.768Z,39.61
2023-05-25T06:36:41.832Z,39.70
2023-05-25T06:39:10.357Z,40.08
2023-05-25T06:41:39.331Z,39.75
2023-05-25T06:44:07.893Z,40.48
2023-05-25T06:46:42.041Z,39.64
2023-05-25T06:49:09.845Z,39.37
2023-05-25T06:51:37.578Z,39.21
2023-05-25T06:54:04.885Z,38.87
2023-05-25T06:56:32.018Z,38.78
2023-05-25T06:58:59.153Z,38.85
2023-05-25T07:01:26.553Z,38.83
2023-05-25T07:03:53.729Z,39.17
2023-05-25T07:06:21.163Z,38.72
2023-05-25T07:08:51.331Z,38.91
2023-05-25T07:11:20.824Z,38.58
2023-05-25T07:13:48.584Z,39.03
2023-05-25T07:16:15.815Z,38.58
2023-05-25T07:18:43.034Z,38.29
2023-05-25T07:21:10.403Z,39.09
2023-05-25T07:23:38.379Z,39.37
2023-05-25T07:26:06.216Z,38.65
2023-05-25T07:28:33.519Z,38.22
2023-05-25T07:31:01.478Z,38.54
2023-05-25T07:33:28.619Z,38.53
2023-05-25T07:35:55.755Z,39.07
2023-05-25T07:38:22.845Z,38.55
2023-05-25T07:40:50.106Z,38.63
2023-05-25T07:43:17.200Z,38.13
2023-05-25T07:45:44.367Z,39.56
2023-05-25T07:48:11.735Z,38.87
2023-05-25T07:50:38.868Z,38.24
2023-05-25T07:53:05.946Z,37.49
2023-05-25T07:55:33.686Z,36.84
2023-05-25T07:58:00.916Z,36.84
2023-05-25T08:00:28.236Z,36.61
2023-05-25T08:02:56.264Z,36.11
2023-05-25T08:05:23.609Z,36.08
2023-05-25T08:07:50.828Z,36.76
2023-05-25T08:10:18.059Z,35.52
2023-05-25T08:12:49.574Z,36.83
2023-05-25T08:15:17.934Z,37.87
2023-05-25T08:17:45.260Z,37.24
2023-05-25T08:20:12.957Z,36.30
2023-05-25T08:22:40.735Z,35.58
2023-05-25T08:25:08.429Z,35.76
2023-05-25T08:27:38.765Z,35.21
2023-05-25T08:30:10.086Z,35.26
2023-05-25T08:32:37.321Z,34.27
2023-05-25T08:35:05.153Z,34.50
2023-05-25T08:37:33.365Z,34.58
2023-05-25T08:40:02.667Z,35.41
2023-05-25T08:42:30.216Z,35.61
2023-05-25T08:44:58.895Z,35.10
2023-05-25T08:47:33.856Z,34.94
2023-05-25T08:50:04.746Z,34.82
2023-05-25T08:52:34.362Z,34.56
2023-05-25T08:55:05.893Z,35.20
2023-05-25T08:57:46.958Z,36.12
2023-05-25T09:00:16.403Z,35.89
2023-05-25T09:03:18.109Z,35.39
2023-05-25T09:05:46.521Z,35.61
2023-05-25T09:08:14.886Z,35.19
2023-05-25T09:10:43.028Z,34.87
2023-05-25T09:13:21.302Z,35.38
2023-05-25T09:15:50.975Z,34.59
2023-05-25T09:18:18.185Z,34.74
2023-05-25T09:20:47.288Z,35.44
2023-05-25T09:23:15.628Z,34.42
2023-05-25T09:25:44.193Z,34.46
2023-05-25T09:30:42.046Z,35.16
2023-05-25T09:33:13.379Z,35.54
2023-05-25T09:35:41.170Z,34.68
2023-05-25T09:38:08.529Z,34.44
2023-05-25T09:40:38.279Z,34.80
2023-05-25T09:43:05.488Z,34.58
2023-05-25T09:45:32.770Z,34.46
2023-05-25T09:48:00.407Z,34.90
2023-05-25T09:50:32.508Z,35.72
2023-05-25T09:53:01.546Z,36.55
2023-05-25T09:55:39.963Z,36.02
2023-05-25T09:58:16.744Z,35.43
2023-05-25T10:00:46.355Z,36.08
2023-05-25T10:03:15.846Z,35.44
2023-05-25T10:05:43.070Z,35.72
2023-05-25T10:08:11.728Z,35.63
2023-05-25T10:10:41.211Z,34.80
2023-05-25T10:13:10.248Z,35.02
2023-05-25T10:15:41.245Z,35.21
2023-05-25T10:18:10.260Z,34.85
2023-05-25T10:20:38.432Z,35.67
2023-05-25T10:23:13.338Z,36.24
2023-05-25T10:25:45.261Z,35.00
2023-05-25T10:28:36.531Z,34.49
2023-05-25T10:31:05.537Z,34.38
2023-05-25T10:33:33.999Z,34.02
2023-05-25T10:36:10.678Z,33.10
2023-05-25T10:38:40.827Z,33.55
2023-05-25T10:41:11.212Z,34.07
2023-05-25T10:43:41.746Z,34.71
2023-05-25T10:46:09.098Z,34.69
2023-05-25T10:48:46.240Z,34.06
2023-05-25T10:51:14.272Z,33.90
2023-05-25T10:53:46.272Z,33.88
2023-05-25T10:56:14.354Z,33.68
2023-05-25T10:58:44.190Z,33.71
2023-05-25T11:01:14.430Z,33.86
2023-05-25T11:03:45.070Z,33.86
2023-05-25T11:06:21.758Z,33.11
2023-05-25T11:08:59.432Z,33.63
2023-05-25T11:11:47.621Z,33.54
2023-05-25T11:14:30.328Z,33.76
2023-05-25T11:17:19.159Z,33.59
2023-05-25T11:19:54.573Z,33.95
2023-05-25T11:22:23.996Z,33.25
2023-05-25T11:24:53.189Z,33.89
2023-05-25T11:27:25.085Z,33.48
2023-05-25T11:29:53.453Z,33.37
2023-05-25T11:32:21.457Z,33.40
2023-05-25T11:34:53.008Z,33.43
2023-05-25T11:37:24.822Z,32.61
2023-05-25T11:39:53.504Z,32.69
2023-05-25T11:42:23.920Z,31.89
2023-05-25T11:44:51.961Z,31.54
2023-05-25T11:47:23.661Z,30.80
2023-05-25T11:49:51.118Z,29.57
2023-05-25T11:52:20.021Z,29.44
2023-05-25T11:54:47.820Z,27.65
2023-05-25T11:57:22.604Z,26.70
2023-05-25T11:59:51.262Z,25.90
2023-05-25T12:02:19.069Z,25.17
2023-05-25T12:04:57.404Z,24.21
2023-05-25T12:07:26.386Z,23.38
2023-05-25T12:10:09.598Z,22.10
2023-05-25T12:12:46.152Z,21.81
2023-05-25T12:15:24.567Z,21.16
2023-05-25T12:17:53.788Z,21.72
2023-05-25T12:20:21.636Z,21.19
2023-05-25T12:22:49.116Z,20.51
2023-05-25T12:25:21.670Z,20.04
2023-05-25T12:27:48.813Z,20.19
2023-05-25T12:30:16.262Z,20.69
2023-05-25T12:32:54.659Z,19.87
2023-05-25T12:35:22.611Z,19.48
2023-05-25T12:37:49.989Z,19.38
2023-05-25T12:40:21.554Z,20.07
2023-05-25T12:42:57.353Z,19.35
2023-05-25T12:45:24.946Z,19.35
2023-05-25T12:47:52.557Z,19.35
2023-05-25T12:50:19.897Z,19.35
2023-05-25T12:52:48.782Z,18.02
2023-05-25T12:55:34.343Z,18.17
2023-05-25T12:58:04.792Z,17.50
2023-05-25T13:00:41.057Z,17.43
2023-05-25T13:03:08.688Z,18.61
2023-05-25T13:05:37.798Z,18.95
2023-05-25T13:08:08.927Z,18.58
2023-05-25T13:10:38.261Z,19.15
2023-05-25T13:13:05.629Z,18.27
2023-05-25T13:15:33.326Z,19.15
2023-05-25T13:18:00.714Z,18.50
2023-05-25T13:20:32.596Z,19.15
2023-05-25T13:23:00.201Z,18.68
2023-05-25T13:25:28.271Z,17.96
2023-05-25T13:27:58.208Z,17.93
2023-05-25T13:30:26.638Z,18.23
2023-05-25T13:32:54.318Z,18.97
2023-05-25T13:35:38.224Z,18.91
2023-05-25T13:38:05.846Z,19.15
2023-05-25T13:40:33.047Z,18.55
2023-05-25T13:43:00.272Z,19.15
2023-05-25T13:45:27.673Z,18.64
2023-05-25T13:47:55.094Z,18.99
2023-05-25T13:50:22.405Z,19.31
2023-05-25T13:52:49.735Z,18.59
2023-05-25T13:55:16.977Z,19.04
2023-05-25T13:57:44.394Z,18.67
2023-05-25T14:00:12.496Z,19.15
2023-05-25T14:02:39.877Z,18.95
2023-05-25T14:05:07.588Z,18.95
2023-05-25T14:07:34.659Z,18.97
2023-05-25T14:10:01.755Z,19.15
2023-05-25T14:12:28.937Z,18.78
2023-05-25T14:14:56.128Z,18.78
2023-05-25T14:17:24.807Z,18.78
2023-05-25T14:19:51.984Z,18.14
2023-05-25T14:22:19.529Z,19.07
2023-05-25T14:24:46.694Z,18.48
2023-05-25T14:27:16.118Z,18.60
2023-05-25T14:29:43.279Z,19.15
2023-05-25T14:32:10.656Z,18.60
2023-05-25T14:34:37.752Z,18.84
2023-05-25T14:37:05.043Z,19.49
2023-05-25T14:39:32.216Z,19.20
2023-05-25T14:41:59.409Z,19.02
2023-05-25T14:44:26.547Z,19.65
2023-05-25T14:46:53.817Z,19.91
2023-05-25T14:49:25.121Z,19.31
2023-05-25T14:51:52.304Z,19.00
2023-05-25T14:54:19.810Z,20.04
2023-05-25T14:56:48.076Z,19.86
2023-05-25T14:59:15.428Z,19.58
2023-05-25T15:01:43.427Z,20.25
2023-05-25T15:04:10.843Z,19.73
2023-05-25T15:06:39.446Z,18.75
2023-05-25T15:09:07.229Z,19.78
2023-05-25T15:11:34.564Z,19.67
2023-05-25T15:14:02.035Z,19.84
2023-05-25T15:16:29.439Z,19.67
2023-05-25T15:18:56.687Z,20.31
2023-05-25T15:21:24.037Z,19.93
2023-05-25T15:23:51.513Z,19.71
2023-05-25T15:26:18.752Z,20.13
2023-05-25T15:28:45.885Z,19.13
2023-05-25T15:31:14.292Z,19.71
2023-05-25T15:33:50.032Z,20.05
2023-05-25T15:36:23.608Z,19.94
2023-05-25T15:38:50.749Z,20.07
2023-05-25T15:41:21.010Z,19.69
2023-05-25T15:44:03.093Z,19.90
2023-05-25T15:46:30.396Z,18.82
2023-05-25T15:48:57.495Z,19.47
2023-05-25T15:51:24.709Z,19.30
2023-05-25T15:53:52.373Z,19.30
2023-05-25T15:56:19.585Z,19.80
2023-05-25T15:58:48.965Z,20.02
2023-05-25T16:01:16.434Z,19.40
2023-05-25T16:03:44.863Z,19.35
2023-05-25T16:06:12.229Z,19.68
2023-05-25T16:08:39.422Z,20.77
2023-05-25T16:11:06.674Z,20.89
2023-05-25T16:13:33.968Z,20.99
2023-05-25T16:16:01.169Z,20.65
2023-05-25T16:18:28.363Z,20.91
2023-05-25T16:20:58.284Z,21.14
2023-05-25T16:23:25.553Z,21.09
2023-05-25T16:25:52.813Z,21.07
2023-05-25T16:28:20.370Z,21.19
2023-05-25T16:30:47.643Z,20.39
2023-05-25T16:33:14.978Z,20.64
2023-05-25T16:35:43.550Z,21.05
2023-05-25T16:38:10.931Z,21.79
2023-05-25T16:40:38.087Z,21.60
2023-05-25T16:43:05.414Z,21.71
2023-05-25T16:45:32.639Z,21.41
2023-05-25T16:48:03.048Z,21.63
2023-05-25T16:50:32.713Z,21.43
2023-05-25T16:53:00.034Z,21.27
2023-05-25T16:55:27.190Z,21.93
2023-05-25T16:57:54.466Z,21.71
2023-05-25T17:00:22.440Z,21.60
2023-05-25T17:02:50.173Z,22.01
2023-05-25T17:05:17.788Z,22.40
2023-05-25T17:07:47.322Z,22.91
2023-05-25T17:10:14.491Z,22.68
2023-05-25T17:12:42.128Z,22.48
2023-05-25T17:15:11.342Z,22.82
2023-05-25T17:17:38.573Z,22.44
2023-05-25T17:20:06.714Z,22.61
2023-05-25T17:22:41.324Z,22.73
2023-05-25T17:25:09.337Z,23.06
2023-05-25T17:27:39.372Z,23.10
2023-05-25T17:30:07.491Z,22.59
2023-05-25T17:32:34.707Z,22.73
2023-05-25T17:35:02.242Z,23.22
2023-05-25T17:37:29.486Z,23.94
2023-05-25T17:39:56.637Z,24.23
2023-05-25T17:42:27.485Z,24.85
2023-05-25T17:44:54.627Z,25.57
2023-05-25T17:47:22.600Z,24.72
2023-05-25T17:49:50.138Z,25.14
2023-05-25T17:52:17.416Z,25.70
2023-05-25T17:54:44.607Z,25.51
2023-05-25T17:57:11.763Z,25.46
2023-05-25T17:59:39.046Z,25.52
2023-05-25T18:02:06.565Z,26.28
2023-05-25T18:04:33.814Z,26.04
2023-05-25T18:07:03.434Z,26.87
2023-05-25T18:09:30.613Z,27.40
2023-05-25T18:11:58.097Z,27.51
2023-05-25T18:14:25.793Z,28.43
2023-05-25T18:16:55.316Z,29.47
2023-05-25T18:19:22.624Z,30.43
2023-05-25T18:21:53.968Z,30.97
2023-05-25T18:24:24.095Z,31.50
2023-05-25T18:26:52.284Z,31.66
2023-05-25T18:29:19.942Z,32.18
2023-05-25T18:31:48.766Z,32.46
2023-05-25T18:34:19.561Z,32.80
2023-05-25T18:36:46.779Z,32.99
2023-05-25T18:39:13.968Z,33.18
2023-05-25T18:41:42.728Z,33.26
2023-05-25T18:44:09.992Z,33.58
2023-05-25T18:46:39.799Z,34.13
2023-05-25T18:49:07.046Z,34.40
2023-05-25T18:51:34.217Z,34.78
2023-05-25T18:54:01.398Z,35.16
2023-05-25T18:56:28.541Z,35.38
2023-05-25T18:58:57.132Z,35.58
2023-05-25T19:01:25.597Z,35.74
2023-05-25T19:03:58.153Z,35.94
2023-05-25T19:06:27.193Z,36.22
2023-05-25T19:08:55.459Z,36.78
2023-05-25T19:11:22.982Z,37.00
2023-05-25T19:13:50.341Z,37.33
2023-05-25T19:16:17.842Z,37.52
2023-05-25T19:18:45.383Z,37.41
2023-05-25T19:21:12.646Z,37.96
2023-05-25T19:23:41.651Z,38.27
2023-05-25T19:26:08.985Z,38.53
2023-05-25T19:28:36.209Z,38.85
2023-05-25T19:31:03.534Z,38.96
2023-05-25T19:33:30.729Z,39.26
2023-05-25T19:35:58.047Z,39.22
2023-05-25T19:38:28.863Z,39.39
2023-05-25T19:41:01.617Z,39.41
2023-05-25T19:43:29.008Z,39.59
2023-05-25T19:45:56.357Z,39.67
2023-05-25T19:48:25.950Z,39.89
2023-05-25T19:50:54.600Z,40.24
2023-05-25T19:53:21.926Z,40.48
2023-05-25T19:55:49.330Z,40.46
2023-05-25T19:58:16.668Z,40.66
2023-05-25T20:00:43.785Z,40.50
2023-05-25T20:03:11.137Z,40.60
2023-05-25T20:05:41.284Z,40.93
2023-05-25T20:08:08.757Z,41.06
2023-05-25T20:10:39.565Z,41.04
2023-05-25T20:13:08.647Z,41.19
2023-05-25T20:15:36.117Z,41.42
2023-05-25T20:18:03.584Z,41.35
2023-05-25T20:20:31.374Z,41.22
2023-05-25T20:22:58.822Z,41.33
2023-05-25T20:25:26.222Z,41.24
2023-05-25T20:27:53.389Z,41.48
2023-05-25T20:30:20.906Z,41.69
2023-05-25T20:32:48.241Z,41.92
2023-05-25T20:35:18.394Z,41.92
2023-05-25T20:37:46.061Z,41.92
2023-05-25T20:40:13.471Z,42.28
2023-05-25T20:42:40.831Z,42.38
2023-05-25T20:45:08.681Z,42.52
2023-05-25T20:47:35.969Z,42.29
2023-05-25T20:50:03.120Z,42.36
2023-05-25T20:52:30.453Z,42.37
2023-05-25T20:54:57.629Z,42.33
2023-05-25T20:57:24.852Z,42.53
2023-05-25T20:59:54.114Z,42.72
2023-05-25T21:02:21.422Z,42.65
2023-05-25T21:04:48.545Z,42.72
2023-05-25T21:07:15.896Z,42.71
2023-05-25T21:09:43.139Z,42.48
2023-05-25T21:12:10.712Z,42.54
2023-05-25T21:14:38.054Z,42.92
2023-05-25T21:17:05.196Z,42.99
2023-05-25T21:19:32.466Z,42.89
2023-05-25T21:22:00.194Z,43.05
2023-05-25T21:24:27.307Z,43.12
2023-05-25T21:26:54.465Z,43.15
2023-05-25T21:29:21.649Z,43.09
2023-05-25T21:31:48.918Z,43.72
2023-05-25T21:34:16.168Z,43.94
2023-05-25T21:36:43.737Z,43.77
2023-05-25T21:39:11.102Z,43.84
2023-05-25T21:41:38.367Z,43.61
2023-05-25T21:44:05.661Z,43.52
2023-05-25T21:46:33.260Z,43.61
2023-05-25T21:49:00.387Z,43.28
2023-05-25T21:51:30.074Z,43.26
2023-05-25T21:53:57.236Z,43.23
2023-05-25T21:56:24.356Z,43.42
2023-05-25T21:58:51.408Z,43.39
2023-05-25T22:01:18.532Z,43.48
2023-05-25T22:03:45.665Z,43.72
2023-05-25T22:06:12.778Z,43.78
2023-05-25T22:08:41.233Z,44.00
2023-05-25T22:11:08.366Z,44.05
2023-05-25T22:13:35.639Z,43.90
2023-05-25T22:16:02.759Z,44.05
2023-05-25T22:18:29.973Z,44.10
2023-05-25T22:20:57.222Z,44.19
2023-05-25T22:23:24.470Z,44.17
2023-05-25T22:25:51.718Z,44.26
2023-05-25T22:28:18.951Z,44.55
2023-05-25T22:30:46.126Z,44.89
2023-05-25T22:33:13.236Z,44.78
2023-05-25T22:35:40.720Z,45.01
2023-05-25T22:38:07.880Z,45.36
2023-05-25T22:40:34.979Z,45.44
2023-05-25T22:43:02.128Z,45.65
2023-05-25T22:45:29.267Z,45.92
2023-05-25T22:47:56.545Z,45.96
2023-05-25T22:50:23.893Z,46.39
2023-05-25T22:52:51.110Z,46.26
2023-05-25T22:55:18.201Z,46.73
2023-05-25T22:57:45.388Z,46.53
2023-05-25T23:00:12.932Z,46.92
2023-05-25T23:02:40.190Z,47.13
2023-05-25T23:05:09.076Z,47.14
2023-05-25T23:07:36.398Z,47.35
2023-05-25T23:10:05.394Z,47.17
2023-05-25T23:12:33.436Z,47.55
2023-05-25T23:15:01.346Z,47.89
2023-05-25T23:17:28.541Z,47.91
2023-05-25T23:19:55.698Z,48.09
2023-05-25T23:22:22.857Z,48.31
2023-05-25T23:24:49.907Z,48.83
2023-05-25T23:27:17.072Z,49.18
2023-05-25T23:29:44.228Z,49.36
2023-05-25T23:32:11.359Z,49.64
2023-05-25T23:34:38.481Z,49.89
2023-05-25T23:37:06.527Z,50.01
2023-05-25T23:39:33.920Z,49.87
2023-05-25T23:42:02.289Z,50.16
2023-05-25T23:44:29.528Z,50.19
2023-05-25T23:46:56.689Z,50.21
2023-05-25T23:49:23.834Z,50.53
2023-05-25T23:51:51.180Z,50.95
2023-05-25T23:54:18.479Z,51.15
2023-05-25T23:56:45.607Z,51.65
2023-05-25T23:59:15.193Z,51.47
